createdAt,value
2022-08-21T00:00:18.386Z,94243.25
2022-08-21T00:01:19.195Z,94242.44
2022-08-21T00:02:19.501Z,94237.41
2022-08-21T00:03:17.081Z,94211.63
2022-08-21T00:04:16.138Z,94243.97
2022-08-21T00:05:19.711Z,94244.72
2022-08-21T00:06:17.533Z,94238.09
2022-08-21T00:07:14.713Z,94214.00
2022-08-21T00:08:12.214Z,94146.78
2022-08-21T00:09:09.769Z,94247.00
2022-08-21T00:10:07.356Z,94230.53
2022-08-21T00:11:05.627Z,94212.88
2022-08-21T00:12:02.620Z,94241.03
2022-08-21T00:13:03.321Z,94211.56
2022-08-21T00:14:00.334Z,94125.25
2022-08-21T00:14:58.214Z,94213.63
2022-08-21T00:15:55.387Z,94236.94
2022-08-21T00:16:52.466Z,94199.91
2022-08-21T00:17:51.608Z,94248.28
2022-08-21T00:18:48.520Z,94229.13
2022-08-21T00:19:45.326Z,94242.84
2022-08-21T00:20:43.705Z,94241.75
2022-08-21T00:21:40.746Z,94235.91
2022-08-21T00:22:41.336Z,94138.53
2022-08-21T00:23:38.130Z,94236.34
2022-08-21T00:24:34.874Z,94215.19
2022-08-21T00:25:32.415Z,94219.94
2022-08-21T00:26:29.411Z,94204.31
2022-08-21T00:27:26.411Z,94091.63
2022-08-21T00:28:23.166Z,94199.31
2022-08-21T00:29:20.610Z,94220.50
2022-08-21T00:30:22.839Z,94218.81
2022-08-21T00:31:20.242Z,94186.53
2022-08-21T00:32:28.123Z,94223.69
2022-08-21T00:33:26.453Z,94218.53
2022-08-21T00:34:23.177Z,94226.72
2022-08-21T00:35:25.554Z,94224.97
2022-08-21T00:36:22.283Z,94226.66
2022-08-21T00:37:19.389Z,94220.31
2022-08-21T00:38:16.262Z,94195.69
2022-08-21T00:39:13.206Z,94225.66
2022-08-21T00:40:16.187Z,94109.66
2022-08-21T00:41:21.155Z,94202.00
2022-08-21T00:42:31.286Z,94232.34
2022-08-21T00:43:32.839Z,94212.88
2022-08-21T00:44:29.571Z,94236.97
2022-08-21T00:45:28.851Z,94111.28
2022-08-21T00:46:28.408Z,94165.81
2022-08-21T00:47:26.299Z,94226.44
2022-08-21T00:48:24.384Z,94139.50
2022-08-21T00:49:21.099Z,94218.50
2022-08-21T00:50:22.006Z,94234.47
2022-08-21T00:51:26.491Z,94227.94
2022-08-21T00:52:30.781Z,94211.78
2022-08-21T00:53:30.050Z,94227.44
2022-08-21T00:54:30.880Z,94221.63
2022-08-21T00:55:29.328Z,94136.31
2022-08-21T00:56:29.737Z,94233.41
2022-08-21T00:57:34.682Z,94264.03
2022-08-21T00:58:33.878Z,94220.94
2022-08-21T00:59:36.296Z,94221.50
2022-08-21T01:00:39.418Z,94223.41
2022-08-21T01:01:36.900Z,94153.63
2022-08-21T01:02:33.812Z,94198.91
2022-08-21T01:03:30.559Z,94215.28
2022-08-21T01:04:27.521Z,94222.00
2022-08-21T01:05:24.440Z,94222.91
2022-08-21T01:06:21.349Z,94250.63
2022-08-21T01:07:18.824Z,94227.47
2022-08-21T01:08:19.827Z,94196.78
2022-08-21T01:09:16.637Z,94190.91
2022-08-21T01:10:16.653Z,94218.44
2022-08-21T01:11:21.589Z,94218.88
2022-08-21T01:12:19.639Z,94165.44
2022-08-21T01:13:19.262Z,94207.38
2022-08-21T01:14:19.825Z,94222.72
2022-08-21T01:15:20.240Z,94221.63
2022-08-21T01:16:21.441Z,94237.09
2022-08-21T01:17:20.456Z,94205.41
2022-08-21T01:18:18.265Z,94182.59
2022-08-21T01:19:18.158Z,94172.81
2022-08-21T01:20:14.909Z,94228.13
2022-08-21T01:21:21.811Z,94203.34
2022-08-21T01:22:18.650Z,94183.78
2022-08-21T01:23:15.428Z,94196.41
2022-08-21T01:24:13.135Z,94174.00
2022-08-21T01:25:12.193Z,94166.03
2022-08-21T01:26:10.666Z,94193.28
2022-08-21T01:27:08.096Z,94208.28
2022-08-21T01:28:15.290Z,94161.94
2022-08-21T01:29:26.898Z,93986.06
2022-08-21T01:30:27.437Z,94200.44
2022-08-21T01:31:27.506Z,94190.16
2022-08-21T01:32:24.919Z,94207.97
2022-08-21T01:33:25.423Z,94211.94
2022-08-21T01:34:22.270Z,94211.06
2022-08-21T01:35:20.951Z,94215.22
2022-08-21T01:36:17.719Z,94203.47
2022-08-21T01:37:15.456Z,94204.53
2022-08-21T01:38:14.882Z,94108.56
2022-08-21T01:39:12.575Z,94141.03
2022-08-21T01:40:10.344Z,94209.25
2022-08-21T01:41:07.900Z,94215.94
2022-08-21T01:42:05.399Z,94219.56
2022-08-21T01:43:02.177Z,94223.47
2022-08-21T01:43:58.977Z,94225.47
2022-08-21T01:44:56.297Z,94224.56
2022-08-21T01:45:53.048Z,94226.31
2022-08-21T01:46:50.395Z,94201.81
2022-08-21T01:48:05.890Z,94213.53
2022-08-21T01:49:04.422Z,94211.88
2022-08-21T01:50:01.307Z,94153.84
2022-08-21T01:50:58.035Z,94208.63
2022-08-21T01:51:54.937Z,94217.25
2022-08-21T01:52:52.915Z,94085.19
2022-08-21T01:53:49.725Z,94215.00
2022-08-21T01:54:46.467Z,94205.09
2022-08-21T01:55:51.852Z,94207.06
2022-08-21T01:56:53.092Z,94079.03
2022-08-21T01:57:51.253Z,94239.13
2022-08-21T01:58:48.944Z,94198.97
2022-08-21T01:59:45.687Z,94213.75
2022-08-21T02:00:42.778Z,94188.16
2022-08-21T02:01:43.463Z,94188.91
2022-08-21T02:02:41.909Z,94207.97
2022-08-21T02:03:39.506Z,94209.84
2022-08-21T02:04:36.421Z,94215.19
2022-08-21T02:05:33.464Z,94219.25
2022-08-21T02:06:30.209Z,94193.09
2022-08-21T02:07:27.281Z,94228.41
2022-08-21T02:08:24.716Z,94208.53
2022-08-21T02:09:22.686Z,94212.19
2022-08-21T02:10:33.050Z,94225.06
2022-08-21T02:11:29.830Z,94212.94
2022-08-21T02:12:26.676Z,94063.69
2022-08-21T02:13:23.490Z,94202.81
2022-08-21T02:14:32.057Z,94103.16
2022-08-21T02:15:30.818Z,94187.50
2022-08-21T02:16:27.679Z,94229.16
2022-08-21T02:17:24.460Z,94229.56
2022-08-21T02:18:21.333Z,94223.94
2022-08-21T02:19:18.473Z,94086.91
2022-08-21T02:20:25.062Z,94222.94
2022-08-21T02:21:21.794Z,94197.06
2022-08-21T02:22:18.574Z,94210.41
2022-08-21T02:23:15.721Z,94210.03
2022-08-21T02:24:13.663Z,94210.19
2022-08-21T02:25:11.277Z,94231.41
2022-08-21T02:26:09.158Z,94211.97
2022-08-21T02:27:05.921Z,94234.13
2022-08-21T02:28:12.556Z,94233.16
2022-08-21T02:29:09.285Z,94231.31
2022-08-21T02:30:06.493Z,94184.34
2022-08-21T02:31:04.219Z,94210.88
2022-08-21T02:32:00.934Z,94204.31
2022-08-21T02:33:00.479Z,94222.53
2022-08-21T02:33:57.241Z,94213.16
2022-08-21T02:34:54.807Z,94227.06
2022-08-21T02:35:53.996Z,94223.78
2022-08-21T02:36:58.732Z,94221.16
2022-08-21T02:38:00.431Z,94228.66
2022-08-21T02:38:57.521Z,94237.13
2022-08-21T02:39:54.277Z,94235.47
2022-08-21T02:40:52.752Z,94195.34
2022-08-21T02:41:49.467Z,94233.50
2022-08-21T02:42:46.743Z,94236.97
2022-08-21T02:43:43.672Z,94232.28
2022-08-21T02:44:40.390Z,94237.81
2022-08-21T02:45:38.679Z,94162.09
2022-08-21T02:46:35.522Z,94217.56
2022-08-21T02:47:32.246Z,94235.06
2022-08-21T02:48:31.683Z,94205.31
2022-08-21T02:49:28.395Z,94176.56
2022-08-21T02:50:29.584Z,94210.53
2022-08-21T02:51:26.929Z,94184.03
2022-08-21T02:52:24.409Z,94199.00
2022-08-21T02:53:21.842Z,94199.41
2022-08-21T02:54:18.570Z,94231.94
2022-08-21T02:55:15.358Z,94211.50
2022-08-21T02:56:15.348Z,94228.09
2022-08-21T02:57:12.105Z,94231.03
2022-08-21T02:58:09.313Z,94149.91
2022-08-21T02:59:06.048Z,94236.69
2022-08-21T03:00:05.458Z,94220.94
2022-08-21T03:01:02.965Z,94209.66
2022-08-21T03:01:59.968Z,94233.25
2022-08-21T03:02:58.289Z,94230.81
2022-08-21T03:03:55.214Z,94211.56
2022-08-21T03:04:52.011Z,94239.84
2022-08-21T03:05:49.822Z,94213.50
2022-08-21T03:06:46.551Z,94247.81
2022-08-21T03:07:45.238Z,94230.56
2022-08-21T03:08:42.874Z,94242.72
2022-08-21T03:09:39.617Z,94217.84
2022-08-21T03:10:53.897Z,94233.34
2022-08-21T03:11:52.332Z,94252.75
2022-08-21T03:12:50.263Z,94236.66
2022-08-21T03:13:47.256Z,94238.84
2022-08-21T03:14:44.116Z,94184.25
2022-08-21T03:15:41.646Z,94228.09
2022-08-21T03:16:38.468Z,94248.63
2022-08-21T03:17:35.579Z,94227.34
2022-08-21T03:18:32.327Z,94241.06
2022-08-21T03:19:29.052Z,94237.84
2022-08-21T03:20:29.259Z,94216.56
2022-08-21T03:21:26.091Z,94236.53
2022-08-21T03:22:22.809Z,94232.47
2022-08-21T03:23:19.739Z,94246.69
2022-08-21T03:24:19.607Z,94222.72
2022-08-21T03:25:18.874Z,94247.19
2022-08-21T03:26:19.772Z,94219.31
2022-08-21T03:27:16.596Z,94242.97
2022-08-21T03:28:18.118Z,94044.72
2022-08-21T03:29:14.894Z,94243.06
2022-08-21T03:30:12.661Z,94204.63
2022-08-21T03:31:09.704Z,94224.34
2022-08-21T03:32:10.205Z,94184.78
2022-08-21T03:33:06.957Z,94203.94
2022-08-21T03:34:03.693Z,94247.94
2022-08-21T03:35:01.324Z,94230.84
2022-08-21T03:36:03.008Z,94238.06
2022-08-21T03:36:59.868Z,94230.13
2022-08-21T03:37:57.249Z,94230.72
2022-08-21T03:38:54.010Z,94232.94
2022-08-21T03:39:51.131Z,94223.88
2022-08-21T03:40:47.953Z,94203.81
2022-08-21T03:41:44.779Z,94231.16
2022-08-21T03:42:41.523Z,94235.06
2022-08-21T03:43:39.492Z,94223.50
2022-08-21T03:44:36.586Z,94227.47
2022-08-21T03:45:33.526Z,94236.78
2022-08-21T03:46:30.296Z,94241.66
2022-08-21T03:47:27.050Z,94226.81
2022-08-21T03:48:24.253Z,94246.59
2022-08-21T03:49:20.969Z,94239.38
2022-08-21T03:50:18.301Z,94239.97
2022-08-21T03:51:15.074Z,94235.63
2022-08-21T03:52:11.874Z,94233.56
2022-08-21T03:53:16.604Z,94195.91
2022-08-21T03:54:14.023Z,94239.91
2022-08-21T03:55:10.850Z,94228.72
2022-08-21T03:56:08.330Z,94239.66
2022-08-21T03:57:05.650Z,94228.72
2022-08-21T03:58:16.973Z,94239.38
2022-08-21T03:59:14.685Z,94189.00
2022-08-21T04:00:13.292Z,94147.13
2022-08-21T04:01:10.065Z,94236.09
2022-08-21T04:02:08.450Z,94244.72
2022-08-21T04:03:05.508Z,94242.03
2022-08-21T04:04:02.476Z,94108.50
2022-08-21T04:04:59.223Z,94192.28
2022-08-21T04:05:56.000Z,94235.91
2022-08-21T04:06:52.906Z,94212.47
2022-08-21T04:07:50.186Z,94246.25
2022-08-21T04:08:47.169Z,94166.63
2022-08-21T04:09:44.171Z,94190.06
2022-08-21T04:10:44.164Z,94144.22
2022-08-21T04:11:40.920Z,94153.06
2022-08-21T04:12:37.709Z,94266.41
2022-08-21T04:13:35.025Z,94260.72
2022-08-21T04:14:39.981Z,94230.78
2022-08-21T04:15:37.382Z,94259.75
2022-08-21T04:16:34.141Z,94230.06
2022-08-21T04:17:30.863Z,94239.69
2022-08-21T04:18:27.852Z,94227.91
2022-08-21T04:19:24.909Z,94198.84
2022-08-21T04:20:23.061Z,94133.63
2022-08-21T04:21:19.859Z,94247.59
2022-08-21T04:22:20.970Z,94258.34
2022-08-21T04:23:23.972Z,94252.84
2022-08-21T04:24:21.435Z,94255.78
2022-08-21T04:25:20.949Z,94236.72
2022-08-21T04:26:17.968Z,94238.38
2022-08-21T04:27:14.705Z,94181.69
2022-08-21T04:28:11.611Z,94240.47
2022-08-21T04:29:08.470Z,94227.19
2022-08-21T04:30:10.031Z,94228.44
2022-08-21T04:31:06.765Z,94254.31
2022-08-21T04:32:03.865Z,94258.13
2022-08-21T04:33:00.880Z,94219.06
2022-08-21T04:33:57.922Z,94228.38
2022-08-21T04:35:04.926Z,94256.50
2022-08-21T04:36:02.891Z,94240.13
2022-08-21T04:36:59.642Z,94252.84
2022-08-21T04:37:57.315Z,94236.63
2022-08-21T04:38:54.191Z,94264.50
2022-08-21T04:39:53.537Z,94220.19
2022-08-21T04:40:51.365Z,94231.97
2022-08-21T04:41:48.119Z,94250.34
2022-08-21T04:42:54.538Z,94246.59
2022-08-21T04:43:51.334Z,94248.25
2022-08-21T04:44:50.051Z,94249.63
2022-08-21T04:45:50.115Z,94212.06
2022-08-21T04:46:46.847Z,94213.78
2022-08-21T04:47:52.763Z,94250.03
2022-08-21T04:48:50.260Z,94036.00
2022-08-21T04:49:47.749Z,94247.38
2022-08-21T04:50:52.088Z,94250.53
2022-08-21T04:51:49.083Z,94205.31
2022-08-21T04:52:47.680Z,94239.78
2022-08-21T04:54:00.077Z,94260.44
2022-08-21T04:54:56.923Z,94239.16
2022-08-21T04:55:57.304Z,94256.72
2022-08-21T04:57:00.741Z,94228.66
2022-08-21T04:57:58.505Z,94220.50
2022-08-21T04:59:00.802Z,94239.47
2022-08-21T04:59:57.709Z,94247.03
2022-08-21T05:00:57.533Z,94142.97
2022-08-21T05:01:58.759Z,94249.22
2022-08-21T05:03:00.401Z,94245.44
2022-08-21T05:04:00.850Z,94238.19
2022-08-21T05:04:58.744Z,94252.25
2022-08-21T05:05:56.077Z,94240.88
2022-08-21T05:06:58.500Z,94255.75
2022-08-21T05:07:55.422Z,94258.84
2022-08-21T05:09:01.662Z,94218.31
2022-08-21T05:10:01.215Z,94223.53
2022-08-21T05:11:00.473Z,94238.13
2022-08-21T05:11:58.777Z,94260.34
2022-08-21T05:12:56.898Z,94248.63
2022-08-21T05:13:56.358Z,94259.81
2022-08-21T05:14:54.287Z,94258.63
2022-08-21T05:15:51.050Z,94234.19
2022-08-21T05:16:48.565Z,94250.34
2022-08-21T05:17:53.755Z,94232.97
2022-08-21T05:18:57.559Z,94253.47
2022-08-21T05:19:54.339Z,94235.47
2022-08-21T05:20:51.690Z,94152.34
2022-08-21T05:21:49.002Z,94266.47
2022-08-21T05:22:46.153Z,94248.69
2022-08-21T05:23:43.726Z,94265.25
2022-08-21T05:24:40.483Z,93910.91
2022-08-21T05:25:37.230Z,94262.19
2022-08-21T05:26:45.502Z,94249.34
2022-08-21T05:27:43.480Z,94256.56
2022-08-21T05:28:40.231Z,94254.03
2022-08-21T05:29:38.026Z,94249.94
2022-08-21T05:30:36.160Z,94244.13
2022-08-21T05:31:33.236Z,94165.47
2022-08-21T05:32:29.993Z,94258.56
2022-08-21T05:33:27.012Z,94247.47
2022-08-21T05:34:24.628Z,94220.44
2022-08-21T05:35:21.550Z,94244.50
2022-08-21T05:36:19.132Z,94225.81
2022-08-21T05:37:15.905Z,94233.75
2022-08-21T05:38:16.731Z,94232.16
2022-08-21T05:39:15.501Z,94251.91
2022-08-21T05:40:21.138Z,94236.03
2022-08-21T05:41:19.654Z,94244.19
2022-08-21T05:42:16.469Z,94231.94
2022-08-21T05:43:13.362Z,94240.28
2022-08-21T05:44:10.576Z,94236.22
2022-08-21T05:45:08.315Z,94234.91
2022-08-21T05:46:06.369Z,94233.66
2022-08-21T05:47:09.489Z,94238.72
2022-08-21T05:48:10.643Z,94236.31
2022-08-21T05:49:07.466Z,94194.16
2022-08-21T05:50:05.717Z,94194.34
2022-08-21T05:51:16.686Z,94199.00
2022-08-21T05:52:19.050Z,94248.75
2022-08-21T05:53:19.672Z,94194.03
2022-08-21T05:54:16.450Z,94236.38
2022-08-21T05:55:14.754Z,94196.06
2022-08-21T05:56:14.074Z,94237.03
2022-08-21T05:57:10.830Z,94245.78
2022-08-21T05:58:07.765Z,94218.94
2022-08-21T05:59:08.746Z,94224.16
2022-08-21T06:00:06.348Z,94235.63
2022-08-21T06:01:04.676Z,94240.97
2022-08-21T06:02:05.622Z,94248.06
2022-08-21T06:03:05.530Z,94214.47
2022-08-21T06:04:02.405Z,94207.97
2022-08-21T06:04:59.525Z,94257.56
2022-08-21T06:05:56.986Z,94240.47
2022-08-21T06:06:53.779Z,94236.94
2022-08-21T06:07:50.566Z,94254.16
2022-08-21T06:08:47.466Z,94254.94
2022-08-21T06:09:44.334Z,94247.00
2022-08-21T06:10:41.825Z,94259.19
2022-08-21T06:11:38.572Z,94243.06
2022-08-21T06:12:35.513Z,94217.13
2022-08-21T06:13:33.556Z,94238.84
2022-08-21T06:14:30.361Z,94226.72
2022-08-21T06:15:27.573Z,94222.06
2022-08-21T06:16:24.638Z,94257.94
2022-08-21T06:17:21.374Z,94169.81
2022-08-21T06:18:18.307Z,94212.41
2022-08-21T06:19:15.097Z,94224.16
2022-08-21T06:20:11.923Z,94256.22
2022-08-21T06:21:09.669Z,94157.94
2022-08-21T06:22:06.415Z,94263.81
2022-08-21T06:23:03.490Z,94234.47
2022-08-21T06:24:00.298Z,94249.50
2022-08-21T06:24:57.041Z,94202.50
2022-08-21T06:25:53.859Z,94271.09
2022-08-21T06:26:53.840Z,94237.56
2022-08-21T06:27:50.626Z,94212.22
2022-08-21T06:28:47.659Z,94248.69
2022-08-21T06:29:46.105Z,94241.53
2022-08-21T06:30:42.868Z,94255.63
2022-08-21T06:31:40.442Z,94171.00
2022-08-21T06:32:38.734Z,94249.16
2022-08-21T06:33:35.541Z,94251.94
2022-08-21T06:34:32.294Z,94220.47
2022-08-21T06:35:30.079Z,94241.75
2022-08-21T06:36:27.286Z,94239.94
2022-08-21T06:37:24.070Z,94212.50
2022-08-21T06:38:20.978Z,94256.91
2022-08-21T06:39:25.356Z,94240.75
2022-08-21T06:40:29.794Z,94205.41
2022-08-21T06:41:27.100Z,94248.25
2022-08-21T06:42:27.915Z,94143.47
2022-08-21T06:43:37.874Z,94118.34
2022-08-21T06:44:36.717Z,94229.75
2022-08-21T06:45:33.488Z,94220.16
2022-08-21T06:46:32.302Z,94244.78
2022-08-21T06:47:29.036Z,94255.50
2022-08-21T06:48:25.889Z,94249.56
2022-08-21T06:49:22.647Z,94255.13
2022-08-21T06:50:20.637Z,94108.97
2022-08-21T06:51:17.458Z,94256.50
2022-08-21T06:52:14.617Z,94144.28
2022-08-21T06:53:16.956Z,94259.53
2022-08-21T06:54:13.753Z,94240.94
2022-08-21T06:55:11.321Z,94228.31
2022-08-21T06:56:10.422Z,94192.97
2022-08-21T06:57:07.658Z,94145.22
2022-08-21T06:58:06.121Z,94207.59
2022-08-21T06:59:02.960Z,94246.94
2022-08-21T06:59:59.782Z,94207.19
2022-08-21T07:01:00.767Z,94239.84
2022-08-21T07:01:59.224Z,94245.03
2022-08-21T07:02:56.301Z,94237.41
2022-08-21T07:03:53.434Z,94235.59
2022-08-21T07:04:50.207Z,94253.09
2022-08-21T07:05:47.011Z,94217.41
2022-08-21T07:06:44.070Z,94099.06
2022-08-21T07:07:40.878Z,94252.63
2022-08-21T07:08:39.059Z,94158.41
2022-08-21T07:09:35.798Z,94255.22
2022-08-21T07:10:32.632Z,94251.69
2022-08-21T07:11:29.634Z,94236.31
2022-08-21T07:12:44.888Z,94248.66
2022-08-21T07:13:41.685Z,94250.84
2022-08-21T07:14:38.496Z,94202.00
2022-08-21T07:15:35.230Z,94244.06
2022-08-21T07:16:32.178Z,94255.66
2022-08-21T07:17:28.924Z,94240.97
2022-08-21T07:18:25.733Z,94229.13
2022-08-21T07:19:22.589Z,94251.25
2022-08-21T07:20:19.341Z,94240.56
2022-08-21T07:21:17.294Z,94246.94
2022-08-21T07:22:20.887Z,94176.28
2022-08-21T07:23:33.440Z,94183.81
2022-08-21T07:24:30.285Z,94130.31
2022-08-21T07:25:27.134Z,94252.69
2022-08-21T07:26:25.303Z,94239.44
2022-08-21T07:27:22.450Z,94245.38
2022-08-21T07:28:19.959Z,94251.75
2022-08-21T07:29:16.901Z,94247.78
2022-08-21T07:30:13.786Z,94235.88
2022-08-21T07:31:15.784Z,94235.09
2022-08-21T07:32:13.327Z,94234.78
2022-08-21T07:33:10.172Z,94244.81
2022-08-21T07:34:07.188Z,94244.97
2022-08-21T07:35:04.458Z,94246.63
2022-08-21T07:36:01.336Z,94193.63
2022-08-21T07:36:59.023Z,94177.72
2022-08-21T07:37:55.861Z,94199.09
2022-08-21T07:38:53.110Z,94229.97
2022-08-21T07:39:50.155Z,94219.34
2022-08-21T07:40:50.074Z,94218.34
2022-08-21T07:41:46.873Z,94165.81
2022-08-21T07:42:52.286Z,94221.66
2022-08-21T07:43:49.198Z,94205.00
2022-08-21T07:44:49.606Z,94244.19
2022-08-21T07:45:52.869Z,94218.50
2022-08-21T07:46:49.875Z,94235.63
2022-08-21T07:47:47.635Z,94218.09
2022-08-21T07:48:44.431Z,94108.75
2022-08-21T07:49:41.229Z,94216.59
2022-08-21T07:50:38.323Z,94121.88
2022-08-21T07:51:35.594Z,94156.72
2022-08-21T07:52:33.532Z,94225.88
2022-08-21T07:53:30.378Z,94241.31
2022-08-21T07:54:33.444Z,94222.56
2022-08-21T07:55:31.480Z,94214.38
2022-08-21T07:56:31.154Z,94210.25
2022-08-21T07:57:27.884Z,94224.94
2022-08-21T07:58:24.799Z,94186.47
2022-08-21T07:59:21.771Z,94195.53
2022-08-21T08:00:22.979Z,94191.84
2022-08-21T08:01:20.082Z,94219.00
2022-08-21T08:02:28.317Z,94178.91
2022-08-21T08:03:28.757Z,94229.50
2022-08-21T08:04:33.569Z,94193.16
2022-08-21T08:05:32.932Z,94209.72
2022-08-21T08:06:30.438Z,94222.94
2022-08-21T08:07:27.334Z,94211.91
2022-08-21T08:08:24.727Z,94213.75
2022-08-21T08:09:21.658Z,94212.75
2022-08-21T08:10:20.975Z,94211.41
2022-08-21T08:11:20.505Z,94140.81
2022-08-21T08:12:17.573Z,94104.81
2022-08-21T08:13:14.573Z,93939.78
2022-08-21T08:14:12.241Z,94037.19
2022-08-21T08:15:13.818Z,94211.25
2022-08-21T08:16:11.510Z,94020.88
2022-08-21T08:17:08.560Z,94137.44
2022-08-21T08:18:05.754Z,94099.69
2022-08-21T08:19:02.787Z,94142.94
2022-08-21T08:20:04.430Z,94105.03
2022-08-21T08:21:01.337Z,94122.75
2022-08-21T08:21:58.094Z,94194.16
2022-08-21T08:22:55.694Z,94203.25
2022-08-21T08:23:53.172Z,94188.88
2022-08-21T08:24:50.371Z,94203.59
2022-08-21T08:25:47.521Z,94178.75
2022-08-21T08:26:44.270Z,94212.00
2022-08-21T08:27:41.322Z,94192.44
2022-08-21T08:28:38.194Z,94191.41
2022-08-21T08:29:34.997Z,94202.03
2022-08-21T08:30:33.193Z,94134.47
2022-08-21T08:31:30.003Z,94167.88
2022-08-21T08:32:26.863Z,94189.84
2022-08-21T08:33:23.619Z,94199.91
2022-08-21T08:34:25.398Z,94144.72
2022-08-21T08:35:24.372Z,94110.38
2022-08-21T08:36:34.515Z,94190.22
2022-08-21T08:37:34.499Z,94164.69
2022-08-21T08:38:31.545Z,94212.13
2022-08-21T08:39:29.742Z,94204.63
2022-08-21T08:40:39.244Z,94122.44
2022-08-21T08:41:42.849Z,94222.41
2022-08-21T08:42:40.542Z,94215.72
2022-08-21T08:43:37.551Z,94026.59
2022-08-21T08:44:35.521Z,93887.72
2022-08-21T08:45:38.483Z,94196.41
2022-08-21T08:46:53.626Z,94193.28
2022-08-21T08:47:59.775Z,94200.59
2022-08-21T08:49:14.451Z,94220.16
2022-08-21T08:50:26.753Z,94198.38
2022-08-21T08:51:48.450Z,94205.53
2022-08-21T08:52:52.818Z,94198.25
2022-08-21T08:54:03.692Z,94213.38
2022-08-21T08:55:13.398Z,94196.00
2022-08-21T08:56:11.936Z,94205.97
2022-08-21T08:57:15.279Z,94206.97
2022-08-21T08:58:26.148Z,94202.28
2022-08-21T08:59:31.457Z,94198.03
2022-08-21T09:00:32.079Z,94150.75
2022-08-21T09:01:29.172Z,94194.56
2022-08-21T09:02:28.505Z,94153.22
2022-08-21T09:03:27.825Z,94184.88
2022-08-21T09:04:29.750Z,94164.69
2022-08-21T09:05:47.496Z,94190.44
2022-08-21T09:07:00.984Z,94191.88
2022-08-21T09:08:19.261Z,94186.97
2022-08-21T09:09:49.751Z,94187.16
2022-08-21T09:10:58.532Z,94188.72
2022-08-21T09:12:26.235Z,94165.63
2022-08-21T09:13:39.331Z,94163.91
2022-08-21T09:14:42.073Z,94177.31
2022-08-21T09:15:53.120Z,94180.81
2022-08-21T09:17:16.606Z,94187.78
2022-08-21T09:18:23.779Z,94184.75
2022-08-21T09:19:44.649Z,94165.41
2022-08-21T09:20:59.436Z,94162.88
2022-08-21T09:22:15.001Z,94159.59
2022-08-21T09:23:26.710Z,94166.84
2022-08-21T09:24:23.359Z,94167.00
2022-08-21T09:25:26.655Z,94081.97
2022-08-21T09:26:31.665Z,94182.72
2022-08-21T09:27:32.434Z,94119.13
2022-08-21T09:28:42.052Z,94078.31
2022-08-21T09:29:42.329Z,94117.06
2022-08-21T09:30:42.526Z,94124.97
2022-08-21T09:31:39.385Z,94172.44
2022-08-21T09:32:39.770Z,94161.81
2022-08-21T09:33:36.590Z,94130.97
2022-08-21T09:34:33.449Z,94040.38
2022-08-21T09:35:30.339Z,94083.38
2022-08-21T09:36:44.031Z,94148.47
2022-08-21T09:37:59.217Z,94147.94
2022-08-21T09:38:56.243Z,94148.03
2022-08-21T09:39:53.123Z,94100.59
2022-08-21T09:40:59.333Z,94139.28
2022-08-21T09:42:24.724Z,94147.34
2022-08-21T09:43:25.819Z,94109.13
2022-08-21T09:44:28.191Z,94163.25
2022-08-21T09:45:25.031Z,94147.25
2022-08-21T09:46:26.182Z,94136.69
2022-08-21T09:47:27.562Z,94151.88
2022-08-21T09:48:27.167Z,94157.25
2022-08-21T09:49:32.603Z,94161.19
2022-08-21T09:50:30.186Z,94144.75
2022-08-21T09:51:31.639Z,94087.19
2022-08-21T09:52:28.612Z,94145.72
2022-08-21T09:53:35.007Z,94141.88
2022-08-21T09:54:38.089Z,94150.19
2022-08-21T09:56:06.318Z,94118.88
2022-08-21T09:57:29.121Z,94136.28
2022-08-21T09:58:34.702Z,94022.66
2022-08-21T09:59:37.155Z,94128.00
2022-08-21T10:00:36.788Z,94129.84
2022-08-21T10:01:44.249Z,94128.00
2022-08-21T10:02:40.985Z,94130.97
2022-08-21T10:03:37.754Z,94108.34
2022-08-21T10:04:37.312Z,94140.31
2022-08-21T10:05:34.107Z,94016.94
2022-08-21T10:06:30.908Z,94123.72
2022-08-21T10:07:31.212Z,94093.03
2022-08-21T10:08:29.631Z,94120.94
2022-08-21T10:09:26.978Z,94050.13
2022-08-21T10:10:29.761Z,94118.53
2022-08-21T10:11:30.547Z,94130.72
2022-08-21T10:12:42.277Z,94136.25
2022-08-21T10:14:02.695Z,94125.22
2022-08-21T10:15:14.547Z,94124.28
2022-08-21T10:16:20.307Z,94120.53
2022-08-21T10:17:17.003Z,94124.88
2022-08-21T10:18:49.045Z,94086.69
2022-08-21T10:20:00.677Z,94113.69
2022-08-21T10:21:10.175Z,94119.75
2022-08-21T10:22:42.362Z,94120.47
2022-08-21T10:23:53.983Z,94112.63
2022-08-21T10:24:50.707Z,94115.25
2022-08-21T10:26:13.185Z,93986.34
2022-08-21T10:27:24.410Z,94113.41
2022-08-21T10:28:32.828Z,94112.88
2022-08-21T10:30:01.612Z,94108.88
2022-08-21T10:31:16.986Z,94121.44
2022-08-21T10:32:59.167Z,94111.81
2022-08-21T10:34:08.092Z,94102.84
2022-08-21T10:35:19.702Z,94102.84
2022-08-21T10:36:48.349Z,94103.34
2022-08-21T10:38:09.242Z,94095.44
2022-08-21T10:39:35.278Z,94096.09
2022-08-21T10:40:32.741Z,94107.44
2022-08-21T10:41:42.242Z,94106.50
2022-08-21T10:42:48.938Z,93960.41
2022-08-21T10:44:16.125Z,94109.00
2022-08-21T10:45:33.894Z,94101.97
2022-08-21T10:46:37.622Z,94095.00
2022-08-21T10:47:42.950Z,94051.75
2022-08-21T10:48:59.675Z,93937.69
2022-08-21T10:50:02.851Z,94084.16
2022-08-21T10:51:10.773Z,94086.81
2022-08-21T10:52:35.047Z,94083.97
2022-08-21T10:54:18.181Z,94016.41
2022-08-21T10:55:26.929Z,94052.81
2022-08-21T10:56:27.884Z,93980.28
2022-08-21T10:58:03.155Z,94076.34
2022-08-21T10:59:27.446Z,94076.19
2022-08-21T11:00:34.695Z,94071.97
2022-08-21T11:01:46.446Z,94076.56
2022-08-21T11:02:54.658Z,94013.31
2022-08-21T11:04:10.314Z,94000.81
2022-08-21T11:05:13.108Z,93954.41
2022-08-21T11:06:24.148Z,94063.81
2022-08-21T11:07:34.017Z,94042.66
2022-08-21T11:08:43.494Z,94072.84
2022-08-21T11:09:46.815Z,94013.84
2022-08-21T11:10:59.457Z,94070.84
2022-08-21T11:12:13.490Z,94047.31
2022-08-21T11:13:31.122Z,94031.00
2022-08-21T11:14:49.895Z,94053.34
2022-08-21T11:16:12.203Z,94047.56
2022-08-21T11:17:13.241Z,94060.84
2022-08-21T11:18:15.938Z,94049.75
2022-08-21T11:19:39.540Z,94061.13
2022-08-21T11:20:47.546Z,94059.53
2022-08-21T11:22:02.748Z,94048.34
2022-08-21T11:23:26.091Z,94036.13
2022-08-21T11:24:45.595Z,94013.59
2022-08-21T11:25:50.284Z,94045.19
2022-08-21T11:26:54.839Z,94036.66
2022-08-21T11:28:22.796Z,93931.41
2022-08-21T11:29:31.097Z,94048.63
2022-08-21T11:30:43.640Z,93992.63
2022-08-21T11:31:49.163Z,94044.00
2022-08-21T11:32:59.503Z,94048.75
2022-08-21T11:34:25.413Z,94034.78
2022-08-21T11:35:34.228Z,94043.75
2022-08-21T11:36:58.355Z,94037.38
2022-08-21T11:37:58.022Z,94034.00
2022-08-21T11:39:01.285Z,94038.97
2022-08-21T11:40:16.836Z,94048.59
2022-08-21T11:41:26.162Z,94005.53
2022-08-21T11:42:52.378Z,94028.44
2022-08-21T11:44:03.078Z,94040.81
2022-08-21T11:45:30.162Z,94038.84
2022-08-21T11:46:47.071Z,94039.09
2022-08-21T11:48:05.275Z,94037.63
2022-08-21T11:49:20.044Z,94047.06
2022-08-21T11:50:34.237Z,94036.00
2022-08-21T11:51:39.204Z,94030.13
2022-08-21T11:52:56.455Z,94044.13
2022-08-21T11:54:14.116Z,93978.69
2022-08-21T11:55:49.489Z,93960.34
2022-08-21T11:57:05.120Z,94041.19
2022-08-21T11:58:20.046Z,94028.09
2022-08-21T11:59:37.577Z,94024.34
2022-08-21T12:00:44.752Z,94001.97
2022-08-21T12:01:46.292Z,93962.19